createdAt,value
2018-08-28T00:00:39.464Z,13.10
2018-08-28T00:03:10.342Z,13.20
2018-08-28T00:05:40.711Z,13.30
2018-08-28T00:08:11.761Z,13.40
2018-08-28T00:10:42.792Z,13.60
2018-08-28T00:13:14.075Z,13.70
2018-08-28T00:15:44.957Z,13.80
2018-08-28T00:18:16.081Z,13.90
2018-08-28T00:20:46.515Z,14.00
2018-08-28T00:23:17.471Z,14.00
2018-08-28T00:25:49.343Z,14.00
2018-08-28T00:28:19.768Z,14.10
2018-08-28T00:30:57.442Z,14.20
2018-08-28T00:33:39.466Z,14.30
2018-08-28T00:36:18.392Z,14.50
2018-08-28T00:38:48.602Z,14.60
2018-08-28T00:41:19.469Z,14.60
2018-08-28T00:43:50.570Z,14.60
2018-08-28T00:46:21.675Z,14.70
2018-08-28T00:48:52.109Z,14.60
2018-08-28T00:51:23.324Z,14.60
2018-08-28T00:53:54.239Z,14.60
2018-08-28T00:56:26.307Z,14.70
2018-08-28T00:58:56.462Z,14.70
2018-08-28T01:01:26.972Z,14.80
2018-08-28T01:03:58.039Z,14.80
2018-08-28T01:06:29.010Z,14.80
2018-08-28T01:08:59.909Z,14.90
2018-08-28T01:11:31.015Z,14.90
2018-08-28T01:14:01.996Z,15.00
2018-08-28T01:16:33.039Z,15.00
2018-08-28T01:19:03.946Z,15.10
2018-08-28T01:21:34.986Z,15.10
2018-08-28T01:24:06.077Z,15.20
2018-08-28T01:26:36.910Z,15.20
2018-08-28T01:29:07.816Z,15.10
2018-08-28T01:31:39.195Z,15.10
2018-08-28T01:34:10.289Z,15.10
2018-08-28T01:36:39.773Z,15.10
2018-08-28T01:39:10.793Z,15.10
2018-08-28T01:41:41.593Z,15.10
2018-08-28T01:44:12.704Z,15.10
2018-08-28T01:46:44.145Z,15.10
2018-08-28T01:49:14.521Z,15.10
2018-08-28T01:51:45.396Z,15.00
2018-08-28T01:54:16.355Z,15.00
2018-08-28T01:56:47.509Z,15.00
2018-08-28T01:59:17.828Z,15.00
2018-08-28T02:01:48.216Z,15.10
2018-08-28T02:04:19.615Z,15.10
2018-08-28T02:06:50.456Z,15.10
2018-08-28T02:09:21.082Z,15.00
2018-08-28T02:11:51.948Z,15.00
2018-08-28T02:14:22.953Z,15.00
2018-08-28T02:16:53.875Z,15.00
2018-08-28T02:19:24.686Z,14.90
2018-08-28T02:21:55.195Z,14.80
2018-08-28T02:24:26.081Z,14.80
2018-08-28T02:26:56.996Z,14.70
2018-08-28T02:29:28.173Z,14.60
2018-08-28T02:31:59.104Z,14.60
2018-08-28T02:34:30.068Z,14.60
2018-08-28T02:37:01.161Z,14.60
2018-08-28T02:39:32.477Z,14.70
2018-08-28T02:42:02.649Z,14.70
2018-08-28T02:44:33.693Z,14.70
2018-08-28T02:47:03.993Z,14.80
2018-08-28T02:49:34.852Z,14.80
2018-08-28T02:52:05.735Z,14.80
2018-08-28T02:54:35.976Z,14.80
2018-08-28T02:57:07.022Z,14.80
2018-08-28T02:59:38.192Z,14.70
2018-08-28T03:02:09.739Z,14.70
2018-08-28T03:04:40.171Z,14.60
2018-08-28T03:07:11.085Z,14.60
2018-08-28T03:09:42.428Z,14.70
2018-08-28T03:12:12.725Z,14.60
2018-08-28T03:14:42.236Z,14.60
2018-08-28T03:17:13.351Z,14.60
2018-08-28T03:19:43.597Z,14.50
2018-08-28T03:22:14.524Z,14.50
2018-08-28T03:24:45.521Z,14.50
2018-08-28T03:27:16.605Z,14.50
2018-08-28T03:29:47.719Z,14.40
2018-08-28T03:32:17.922Z,14.40
2018-08-28T03:34:48.159Z,14.30
2018-08-28T03:37:18.547Z,14.30
2018-08-28T03:39:49.627Z,14.20
2018-08-28T03:42:20.047Z,14.20
2018-08-28T03:44:51.326Z,14.20
2018-08-28T03:47:22.343Z,14.10
2018-08-28T03:49:53.361Z,14.10
2018-08-28T03:52:24.251Z,14.10
2018-08-28T03:54:55.303Z,14.10
2018-08-28T03:57:32.235Z,14.10
2018-08-28T04:00:03.752Z,14.10
2018-08-28T04:02:34.676Z,14.10
2018-08-28T04:05:05.901Z,14.10
2018-08-28T04:07:36.806Z,14.00
2018-08-28T04:10:08.200Z,14.00
2018-08-28T04:12:39.273Z,13.90
2018-08-28T04:15:09.918Z,13.90
2018-08-28T04:17:45.654Z,13.90
2018-08-28T04:20:16.622Z,13.90
2018-08-28T04:22:47.310Z,13.90
2018-08-28T04:25:19.059Z,13.90
2018-08-28T04:27:50.106Z,14.00
2018-08-28T04:30:21.251Z,13.90
2018-08-28T04:32:52.614Z,13.90
2018-08-28T04:35:23.640Z,13.90
2018-08-28T04:37:53.798Z,14.00
2018-08-28T04:40:25.197Z,13.90
2018-08-28T04:42:56.398Z,13.90
2018-08-28T04:45:27.662Z,13.90
2018-08-28T04:47:59.046Z,13.90
2018-08-28T04:50:29.863Z,13.90
2018-08-28T04:53:00.763Z,14.00
2018-08-28T04:55:32.117Z,14.00
2018-08-28T04:58:03.429Z,14.00
2018-08-28T05:00:33.886Z,14.00
2018-08-28T05:03:05.626Z,14.00
2018-08-28T05:05:35.584Z,14.00
2018-08-28T05:08:06.190Z,14.10
2018-08-28T05:10:37.452Z,14.20
2018-08-28T05:13:08.595Z,14.20
2018-08-28T05:15:39.884Z,14.30
2018-08-28T05:18:11.077Z,14.40
2018-08-28T05:20:42.119Z,14.40
2018-08-28T05:23:13.181Z,14.50
2018-08-28T05:25:44.284Z,14.70
2018-08-28T05:28:15.413Z,14.80
2018-08-28T05:30:46.553Z,15.00
2018-08-28T05:33:17.878Z,15.20
2018-08-28T05:35:48.253Z,15.30
2018-08-28T05:38:19.366Z,15.40
2018-08-28T05:40:50.538Z,15.40
2018-08-28T05:43:21.875Z,15.50
2018-08-28T05:45:52.349Z,15.60
2018-08-28T05:48:23.462Z,15.60
2018-08-28T05:50:54.816Z,15.60
2018-08-28T05:53:33.526Z,15.70
2018-08-28T05:56:03.952Z,15.70
2018-08-28T05:58:35.291Z,15.70
2018-08-28T06:01:08.671Z,15.70
2018-08-28T06:03:39.243Z,15.70
2018-08-28T06:06:09.918Z,15.80
2018-08-28T06:08:40.799Z,15.90
2018-08-28T06:11:14.300Z,16.00
2018-08-28T06:13:44.762Z,16.10
2018-08-28T06:16:15.881Z,16.20
2018-08-28T06:18:46.234Z,16.30
2018-08-28T06:21:16.796Z,16.40
2018-08-28T06:23:47.585Z,16.40
2018-08-28T06:29:33.571Z,16.70
2018-08-28T06:34:40.466Z,17.00
2018-08-28T06:37:10.720Z,17.30
2018-08-28T06:39:41.791Z,17.40
2018-08-28T06:42:12.925Z,17.30
2018-08-28T06:44:44.187Z,17.20
2018-08-28T06:47:15.195Z,17.20
2018-08-28T06:49:46.379Z,17.10
2018-08-28T06:52:18.174Z,17.10
2018-08-28T06:54:51.427Z,17.10
2018-08-28T06:57:33.544Z,17.20
2018-08-28T07:00:13.200Z,17.20
2018-08-28T07:02:44.856Z,17.40
2018-08-28T07:05:16.248Z,17.50
2018-08-28T07:07:49.550Z,17.60
2018-08-28T07:10:22.669Z,17.60
2018-08-28T07:12:53.212Z,17.80
2018-08-28T07:15:25.286Z,18.00
2018-08-28T07:17:55.536Z,18.30
2018-08-28T07:20:26.658Z,18.40
2018-08-28T07:22:57.792Z,18.40
2018-08-28T07:25:28.949Z,18.50
2018-08-28T07:28:00.897Z,18.50
2018-08-28T07:30:32.076Z,18.60
2018-08-28T07:33:03.002Z,18.80
2018-08-28T07:35:38.441Z,19.00
2018-08-28T07:43:17.610Z,18.90
2018-08-28T07:46:02.980Z,18.90
2018-08-28T07:48:34.616Z,18.50
2018-08-28T07:51:05.889Z,18.40
2018-08-28T07:53:37.583Z,18.30
2018-08-28T07:56:07.945Z,18.20
2018-08-28T07:58:38.901Z,18.20
2018-08-28T17:31:34.193Z,18.70
2018-08-28T17:34:06.148Z,18.40
2018-08-28T17:36:37.000Z,18.30
2018-08-28T17:39:08.896Z,18.20
2018-08-28T17:41:40.595Z,18.10
2018-08-28T17:44:12.358Z,18.00
2018-08-28T17:46:44.203Z,17.80
2018-08-28T17:49:16.174Z,17.60
2018-08-28T17:51:48.758Z,17.40
2018-08-28T17:54:20.415Z,17.20
2018-08-28T17:56:51.845Z,16.90
2018-08-28T17:59:23.527Z,16.70
2018-08-28T18:01:55.736Z,16.50
2018-08-28T18:04:26.925Z,16.30
2018-08-28T18:06:59.877Z,16.10
2018-08-28T18:09:30.839Z,15.90
2018-08-28T18:12:01.799Z,15.80
2018-08-28T18:14:31.976Z,15.60
2018-08-28T18:17:02.248Z,15.50
2018-08-28T18:19:32.903Z,15.40
2018-08-28T18:22:03.621Z,15.30
2018-08-28T18:24:33.492Z,15.20
2018-08-28T18:27:03.848Z,15.10
2018-08-28T18:29:33.918Z,14.90
2018-08-28T18:32:05.172Z,14.80
2018-08-28T18:34:36.417Z,14.70
2018-08-28T18:37:06.799Z,14.50
2018-08-28T18:39:38.768Z,14.40
2018-08-28T18:42:10.189Z,14.30
2018-08-28T18:44:41.610Z,14.20
2018-08-28T18:47:11.799Z,14.10
2018-08-28T18:49:43.536Z,14.00
2018-08-28T18:52:16.409Z,13.90
2018-08-28T18:54:48.524Z,13.80
2018-08-28T18:57:20.884Z,13.70
2018-08-28T18:59:53.117Z,13.60
2018-08-28T19:02:24.699Z,13.50
2018-08-28T19:04:55.816Z,13.40
2018-08-28T19:07:33.972Z,13.30
2018-08-28T19:10:05.725Z,13.10
2018-08-28T19:12:36.688Z,13.00
2018-08-28T19:15:07.457Z,12.90
2018-08-28T19:17:38.908Z,12.80
2018-08-28T19:20:10.758Z,12.80
2018-08-28T19:22:42.805Z,12.70
2018-08-28T19:25:21.504Z,12.70
2018-08-28T19:27:52.889Z,12.60
2018-08-28T19:30:25.097Z,12.60
2018-08-28T19:32:56.716Z,12.50
2018-08-28T19:35:28.270Z,12.40
2018-08-28T19:37:59.746Z,12.40
2018-08-28T19:40:31.798Z,12.30
2018-08-28T19:43:04.290Z,12.30
2018-08-28T19:45:35.884Z,12.20
2018-08-28T19:48:07.486Z,12.20
2018-08-28T19:50:38.374Z,12.10
2018-08-28T19:53:09.978Z,12.10
2018-08-28T19:55:42.002Z,12.00
2018-08-28T19:58:13.528Z,12.00
2018-08-28T20:00:44.300Z,12.00
2018-08-28T20:03:16.497Z,12.00
2018-08-28T20:05:48.872Z,11.90
2018-08-28T20:08:20.130Z,11.90
2018-08-28T20:10:52.084Z,11.80
2018-08-28T20:13:23.514Z,11.70
2018-08-28T20:15:54.752Z,11.60
2018-08-28T20:18:25.527Z,11.50
2018-08-28T20:20:56.366Z,11.50
2018-08-28T20:23:27.916Z,11.50
2018-08-28T20:25:59.700Z,11.40
2018-08-28T20:28:31.952Z,11.30
2018-08-28T20:31:04.067Z,11.30
2018-08-28T20:33:35.438Z,11.30
2018-08-28T20:36:06.981Z,11.40
2018-08-28T20:38:37.907Z,11.40
2018-08-28T20:41:08.776Z,11.50
2018-08-28T20:43:40.228Z,11.50
2018-08-28T20:46:11.371Z,11.40
2018-08-28T20:48:42.317Z,11.40
2018-08-28T20:51:12.434Z,11.40
2018-08-28T20:53:44.541Z,11.40
2018-08-28T20:56:15.424Z,11.40
2018-08-28T20:58:46.158Z,11.30
2018-08-28T21:01:16.812Z,11.30
2018-08-28T21:03:48.274Z,11.20
2018-08-28T21:06:19.634Z,11.10
2018-08-28T21:08:51.058Z,11.00
2018-08-28T21:11:20.955Z,11.00
2018-08-28T21:13:51.900Z,11.00
2018-08-28T21:16:22.452Z,11.00
2018-08-28T21:18:53.218Z,11.00
2018-08-28T21:21:24.520Z,11.00
2018-08-28T21:23:54.588Z,10.90
2018-08-28T21:26:24.398Z,10.90
2018-08-28T21:28:55.003Z,10.90
2018-08-28T21:31:25.828Z,10.90
2018-08-28T21:33:56.381Z,10.80
2018-08-28T21:36:27.195Z,10.80
2018-08-28T21:38:57.946Z,10.70
2018-08-28T21:41:29.315Z,10.70
2018-08-28T21:44:00.974Z,10.60
2018-08-28T21:46:31.595Z,10.60
2018-08-28T21:49:03.169Z,10.60
2018-08-28T21:51:33.923Z,10.50
2018-08-28T21:54:05.471Z,10.50
2018-08-28T21:56:36.075Z,10.40
2018-08-28T21:59:06.744Z,10.40
2018-08-28T22:01:38.133Z,10.40
2018-08-28T22:04:08.777Z,10.40
2018-08-28T22:06:44.834Z,10.30
2018-08-28T22:09:15.752Z,10.30
2018-08-28T22:11:48.016Z,10.20
2018-08-28T22:14:18.625Z,10.20
2018-08-28T22:16:49.140Z,10.20
2018-08-28T22:19:20.151Z,10.10
2018-08-28T22:21:50.989Z,10.10
2018-08-28T22:24:21.921Z,10.10
2018-08-28T22:26:52.643Z,10.10
2018-08-28T22:29:23.903Z,10.10
2018-08-28T22:31:55.276Z,10.00
2018-08-28T22:34:26.082Z,10.00
2018-08-28T22:36:56.837Z,10.00
2018-08-28T22:39:27.641Z,9.90
2018-08-28T22:41:59.371Z,9.80
2018-08-28T22:44:30.052Z,9.60
2018-08-28T22:47:00.862Z,9.60
